createdAt,value
2023-01-18T00:00:12.987Z,95609.63
2023-01-18T00:03:15.726Z,95601.91
2023-01-18T00:06:18.636Z,95612.09
2023-01-18T00:09:22.532Z,95607.56
2023-01-18T00:12:24.977Z,95616.34
2023-01-18T00:15:28.094Z,95609.38
2023-01-18T00:18:30.748Z,95615.22
2023-01-18T00:21:33.507Z,95608.59
2023-01-18T00:24:37.360Z,95607.91
2023-01-18T00:27:39.766Z,95613.41
2023-01-18T00:30:42.378Z,95619.25
2023-01-18T00:33:45.758Z,95606.69
2023-01-18T00:36:49.736Z,95612.94
2023-01-18T00:39:53.644Z,95624.19
2023-01-18T00:43:13.957Z,95623.06
2023-01-18T00:46:18.363Z,95623.16
2023-01-18T00:49:20.909Z,95621.13
2023-01-18T00:52:23.426Z,95623.28
2023-01-18T00:55:27.763Z,95626.88
2023-01-18T00:58:30.725Z,95624.63
2023-01-18T01:01:33.328Z,95620.34
2023-01-18T01:04:53.440Z,95630.66
2023-01-18T01:07:56.056Z,95617.19
2023-01-18T01:11:08.672Z,95623.44
2023-01-18T01:14:28.847Z,95635.59
2023-01-18T01:17:49.621Z,95633.94
2023-01-18T01:21:09.845Z,95635.25
2023-01-18T01:24:30.139Z,95627.50
2023-01-18T01:27:34.160Z,95643.66
2023-01-18T01:30:36.920Z,95643.44
2023-01-18T01:33:39.953Z,95649.94
2023-01-18T01:36:42.504Z,95649.41
2023-01-18T01:39:45.043Z,95653.56
2023-01-18T01:42:49.202Z,95655.22
2023-01-18T01:45:52.773Z,95657.84
2023-01-18T01:49:01.155Z,95658.97
2023-01-18T01:52:05.455Z,95659.84
2023-01-18T01:55:11.942Z,95661.19
2023-01-18T01:58:17.091Z,95666.16
2023-01-18T02:01:19.953Z,95663.03
2023-01-18T02:04:22.703Z,95676.00
2023-01-18T02:07:26.733Z,95668.84
2023-01-18T02:10:30.123Z,95669.97
2023-01-18T02:13:34.051Z,95676.16
2023-01-18T02:16:43.734Z,95680.41
2023-01-18T02:20:11.526Z,95677.53
2023-01-18T02:23:32.840Z,95672.13
2023-01-18T02:27:01.971Z,95679.25
2023-01-18T02:30:11.710Z,95687.31
2023-01-18T02:33:18.625Z,95698.38
2023-01-18T02:36:27.147Z,95691.56
2023-01-18T02:39:38.435Z,95699.09
2023-01-18T02:43:00.582Z,95697.69
2023-01-18T02:46:24.947Z,95706.94
2023-01-18T02:49:32.115Z,95699.38
2023-01-18T02:52:40.571Z,95708.59
2023-01-18T02:55:47.986Z,95712.06
2023-01-18T02:58:53.752Z,95713.41
2023-01-18T03:02:00.409Z,95712.63
2023-01-18T03:05:03.601Z,95720.97
2023-01-18T03:08:10.731Z,95722.97
2023-01-18T03:11:15.499Z,95723.16
2023-01-18T03:14:24.065Z,95718.47
2023-01-18T03:17:32.149Z,95724.66
2023-01-18T03:20:39.296Z,95728.78
2023-01-18T03:23:43.084Z,95723.50
2023-01-18T03:26:48.475Z,95723.97
2023-01-18T03:30:08.647Z,95718.88
2023-01-18T03:33:31.302Z,95734.34
2023-01-18T03:36:37.304Z,95739.59
2023-01-18T03:39:42.889Z,95738.28
2023-01-18T03:42:49.420Z,95739.09
2023-01-18T03:45:54.288Z,95742.00
2023-01-18T03:48:58.658Z,95744.94
2023-01-18T03:52:08.808Z,95748.28
2023-01-18T03:55:16.774Z,95739.88
2023-01-18T03:58:22.954Z,95741.78
2023-01-18T04:01:26.891Z,95751.34
2023-01-18T04:04:30.934Z,95752.69
2023-01-18T04:07:33.677Z,95756.63
2023-01-18T04:10:36.479Z,95757.94
2023-01-18T04:13:39.121Z,95760.44
2023-01-18T04:16:41.660Z,95764.91
2023-01-18T04:19:45.790Z,95766.16
2023-01-18T04:22:52.691Z,95769.63
2023-01-18T04:25:55.428Z,95780.03
2023-01-18T04:28:57.952Z,95783.34
2023-01-18T04:32:00.636Z,95787.75
2023-01-18T04:35:04.973Z,95789.81
2023-01-18T04:38:07.508Z,95784.38
2023-01-18T04:41:10.137Z,95788.19
2023-01-18T04:44:12.930Z,95797.25
2023-01-18T04:47:15.631Z,95804.97
2023-01-18T04:50:19.836Z,95802.69
2023-01-18T04:53:23.124Z,95800.63
2023-01-18T04:56:25.811Z,95815.03
2023-01-18T04:59:28.459Z,95823.22
2023-01-18T05:02:31.117Z,95828.59
2023-01-18T05:05:35.044Z,95834.88
2023-01-18T05:08:40.854Z,95829.06
2023-01-18T05:11:43.900Z,95840.44
2023-01-18T05:14:46.458Z,95852.19
2023-01-18T05:17:49.074Z,95862.19
2023-01-18T05:20:53.347Z,95871.78
2023-01-18T05:23:56.081Z,95877.94
2023-01-18T05:26:58.638Z,95885.09
2023-01-18T05:30:01.978Z,95889.94
2023-01-18T05:33:04.653Z,95901.09
2023-01-18T05:39:35.543Z,95910.16
2023-01-18T05:42:38.236Z,95914.28
2023-01-18T05:45:41.238Z,95913.56
2023-01-18T05:48:43.865Z,95920.38
2023-01-18T05:51:47.860Z,95924.06
2023-01-18T05:54:50.530Z,95940.84
2023-01-18T05:57:53.352Z,95950.44
2023-01-18T06:00:56.234Z,95939.00
2023-01-18T06:03:59.255Z,95953.50
2023-01-18T06:07:03.259Z,95967.25
2023-01-18T06:10:07.118Z,95968.44
2023-01-18T06:13:09.575Z,95987.19
2023-01-18T06:16:13.218Z,95990.44
2023-01-18T06:19:15.938Z,95998.59
2023-01-18T06:22:20.502Z,96002.16
2023-01-18T06:25:23.166Z,96007.78
2023-01-18T06:28:26.091Z,96010.38
2023-01-18T06:31:28.933Z,96019.91
2023-01-18T06:34:32.433Z,96027.50
2023-01-18T06:37:36.534Z,96030.78
2023-01-18T06:40:39.457Z,96029.22
2023-01-18T06:43:42.119Z,96032.50
2023-01-18T06:46:44.823Z,96033.63
2023-01-18T06:49:47.983Z,96049.25
2023-01-18T06:52:52.118Z,96048.03
2023-01-18T06:55:58.811Z,96056.91
2023-01-18T06:59:01.482Z,96069.84
2023-01-18T07:02:04.839Z,96073.13
2023-01-18T07:05:08.088Z,96076.88
2023-01-18T07:08:12.351Z,96078.53
2023-01-18T07:11:15.248Z,96090.03
2023-01-18T07:14:20.392Z,96088.00
2023-01-18T07:17:23.080Z,96093.53
2023-01-18T07:20:26.333Z,96100.91
2023-01-18T07:23:31.327Z,96103.78
2023-01-18T07:26:35.209Z,96118.63
2023-01-18T07:29:37.645Z,96121.66
2023-01-18T07:32:40.865Z,96128.31
2023-01-18T07:35:43.669Z,96148.63
2023-01-18T07:38:49.097Z,96148.13
2023-01-18T07:41:51.933Z,96153.25
2023-01-18T07:44:54.518Z,96155.94
2023-01-18T07:47:57.159Z,96152.97
2023-01-18T07:51:01.497Z,96165.41
2023-01-18T07:54:05.779Z,96174.50
2023-01-18T07:57:08.401Z,96175.16
2023-01-18T08:00:12.336Z,96186.34
2023-01-18T08:03:15.857Z,96185.63
2023-01-18T08:06:21.801Z,96187.41
2023-01-18T08:09:25.921Z,96202.91
2023-01-18T08:12:28.522Z,96212.13
2023-01-18T08:15:31.219Z,96219.59
2023-01-18T08:18:34.050Z,96219.34
2023-01-18T08:21:36.756Z,96222.06
2023-01-18T08:24:40.723Z,96230.72
2023-01-18T08:27:43.232Z,96237.38
2023-01-18T08:30:47.438Z,96255.34
2023-01-18T08:33:51.031Z,96248.56
2023-01-18T08:36:53.772Z,96253.78
2023-01-18T08:39:58.247Z,96262.66
2023-01-18T08:43:01.615Z,96275.59
2023-01-18T08:46:04.613Z,96290.28
2023-01-18T08:49:07.612Z,96291.28
2023-01-18T08:52:10.942Z,96303.09
2023-01-18T08:55:14.949Z,96307.69
2023-01-18T08:58:17.800Z,96316.78
2023-01-18T09:01:23.471Z,96316.41
2023-01-18T09:04:27.916Z,96314.34
2023-01-18T09:07:30.712Z,96327.19
2023-01-18T09:10:37.363Z,96330.00
2023-01-18T09:13:54.629Z,96343.47
2023-01-18T09:17:01.886Z,96348.25
2023-01-18T09:20:09.545Z,96345.00
2023-01-18T09:23:12.259Z,96345.72
2023-01-18T09:26:18.355Z,96369.25
2023-01-18T09:29:21.081Z,96365.28
2023-01-18T09:32:25.418Z,96376.63
2023-01-18T09:35:28.053Z,96392.19
2023-01-18T09:38:31.002Z,96395.22
2023-01-18T09:41:36.424Z,96405.19
2023-01-18T09:44:40.985Z,96400.75
2023-01-18T09:47:46.226Z,96405.59
2023-01-18T09:50:48.904Z,96414.25
2023-01-18T09:53:59.471Z,96411.81
2023-01-18T09:57:08.939Z,96418.25
2023-01-18T10:00:20.490Z,96423.66
2023-01-18T10:03:26.180Z,96429.22
2023-01-18T10:06:32.781Z,96434.78
2023-01-18T10:09:39.643Z,96439.66
2023-01-18T10:12:46.407Z,96449.53
2023-01-18T10:15:49.492Z,96454.03
2023-01-18T10:18:55.602Z,96453.31
2023-01-18T10:22:03.523Z,96457.75
2023-01-18T10:25:14.190Z,96454.66
2023-01-18T10:28:27.360Z,96454.31
2023-01-18T10:31:38.884Z,96460.50
2023-01-18T10:34:45.688Z,96465.97
2023-01-18T10:37:49.052Z,96461.59
2023-01-18T10:40:56.486Z,96467.72
2023-01-18T10:44:00.513Z,96475.53
2023-01-18T10:47:03.378Z,96490.00
2023-01-18T10:50:13.371Z,96490.50
2023-01-18T10:53:21.816Z,96498.22
2023-01-18T10:56:25.503Z,96497.59
2023-01-18T10:59:35.562Z,96496.06
2023-01-18T11:02:39.516Z,96498.81
2023-01-18T11:05:42.164Z,96495.28
2023-01-18T11:08:45.225Z,96508.97
2023-01-18T11:12:05.423Z,96514.22
2023-01-18T11:15:29.981Z,96524.41
2023-01-18T11:18:32.679Z,96510.09
2023-01-18T11:21:45.968Z,96511.69
2023-01-18T11:24:53.861Z,96517.47
2023-01-18T11:28:02.257Z,96525.31
2023-01-18T11:31:11.863Z,96526.00
2023-01-18T11:34:23.672Z,96524.03
2023-01-18T11:37:31.998Z,96536.28
2023-01-18T11:40:35.578Z,96536.06
2023-01-18T11:43:39.479Z,96532.34
2023-01-18T11:46:46.372Z,96545.66
2023-01-18T11:49:55.235Z,96541.00
2023-01-18T11:53:03.361Z,96542.25
2023-01-18T11:56:10.517Z,96541.78
2023-01-18T11:59:16.003Z,96552.13
2023-01-18T12:02:56.032Z,96555.31
2023-01-18T12:06:04.596Z,96565.03
2023-01-18T12:09:22.243Z,96562.97
2023-01-18T12:12:37.625Z,96568.19
2023-01-18T12:15:58.181Z,96569.06
2023-01-18T12:19:25.663Z,96580.34
2023-01-18T12:23:01.483Z,96588.31
2023-01-18T12:26:18.163Z,96587.75
2023-01-18T12:29:36.404Z,96597.94
2023-01-18T12:32:50.393Z,96605.50
2023-01-18T12:36:11.769Z,96607.91
2023-01-18T12:39:30.952Z,96611.53
2023-01-18T12:42:44.511Z,96617.31
2023-01-18T12:45:50.127Z,96625.81
2023-01-18T12:48:55.774Z,96624.91
2023-01-18T12:52:17.731Z,96636.66
2023-01-18T12:55:23.775Z,96631.78
2023-01-18T12:58:27.338Z,96640.19
2023-01-18T13:01:32.710Z,96634.94
2023-01-18T13:04:37.927Z,96642.63
2023-01-18T13:07:45.439Z,96639.91
2023-01-18T13:10:48.839Z,96637.19
2023-01-18T13:13:55.039Z,96649.16
2023-01-18T13:17:02.228Z,96644.75
2023-01-18T13:20:07.745Z,96646.38
2023-01-18T13:23:21.587Z,96661.22
2023-01-18T13:26:26.943Z,96660.91
2023-01-18T13:29:30.568Z,96669.66
2023-01-18T13:32:35.044Z,96672.47
2023-01-18T13:35:38.441Z,96674.28
2023-01-18T13:38:50.354Z,96687.47
2023-01-18T13:42:10.597Z,96700.31
2023-01-18T13:45:19.793Z,96699.38
2023-01-18T13:48:41.472Z,96708.53
2023-01-18T13:51:54.005Z,96724.56
2023-01-18T13:55:24.031Z,96722.69
2023-01-18T13:58:28.138Z,96722.84
2023-01-18T14:01:34.885Z,96725.38
2023-01-18T14:04:37.719Z,96725.03
2023-01-18T14:07:44.190Z,96732.00
2023-01-18T14:10:50.935Z,96741.53
2023-01-18T14:14:05.905Z,96741.06
2023-01-18T14:17:15.155Z,96747.72
2023-01-18T14:20:44.599Z,96758.69
2023-01-18T14:24:02.717Z,96762.50
2023-01-18T14:27:09.373Z,96771.84
2023-01-18T14:30:17.853Z,96781.03
2023-01-18T14:33:24.978Z,96794.22
2023-01-18T14:36:29.321Z,96784.00
2023-01-18T14:39:33.317Z,96794.66
2023-01-18T14:42:40.971Z,96805.00
2023-01-18T14:45:52.498Z,96806.91
2023-01-18T14:48:57.644Z,96807.66
2023-01-18T14:52:00.636Z,96811.16
2023-01-18T14:55:04.308Z,96820.47
2023-01-18T14:58:15.046Z,96819.66
2023-01-18T15:01:27.132Z,96828.50
2023-01-18T15:04:31.206Z,96826.94
2023-01-18T15:07:34.978Z,96839.81
2023-01-18T15:10:39.187Z,96848.69
2023-01-18T15:13:47.574Z,96852.03
2023-01-18T15:16:53.183Z,96856.16
2023-01-18T15:19:56.956Z,96862.50
2023-01-18T15:22:59.888Z,96869.47
2023-01-18T15:26:06.150Z,96873.75
2023-01-18T15:29:15.841Z,96880.91
2023-01-18T15:32:21.185Z,96883.66
2023-01-18T15:35:25.578Z,96887.75
2023-01-18T15:38:28.565Z,96892.81
2023-01-18T15:41:33.402Z,96898.78
2023-01-18T15:44:42.362Z,96901.69
2023-01-18T15:47:49.076Z,96905.47
2023-01-18T15:50:52.968Z,96918.94
2023-01-18T15:53:56.490Z,96923.72
2023-01-18T15:57:11.651Z,96925.28
2023-01-18T16:00:30.277Z,96929.72
2023-01-18T16:03:36.676Z,96930.91
2023-01-18T16:06:40.326Z,96931.22
2023-01-18T16:09:43.357Z,96939.84
2023-01-18T16:12:46.385Z,96942.88
2023-01-18T16:16:16.117Z,96949.34
2023-01-18T16:19:24.315Z,96956.69
2023-01-18T16:22:28.744Z,96963.34
2023-01-18T16:25:31.555Z,96970.16
2023-01-18T16:28:34.080Z,96971.94
2023-01-18T16:31:41.978Z,96968.41
2023-01-18T16:34:44.727Z,96975.38
2023-01-18T16:37:47.981Z,96973.09
2023-01-18T16:40:51.691Z,96975.81
2023-01-18T16:43:54.293Z,96984.97
2023-01-18T16:46:58.656Z,96983.97
2023-01-18T16:50:01.455Z,96993.97
2023-01-18T16:53:04.402Z,96999.59
2023-01-18T16:56:07.532Z,96997.66
2023-01-18T16:59:17.105Z,96998.25
2023-01-18T17:02:22.006Z,97005.84
2023-01-18T17:05:24.781Z,97006.06
2023-01-18T17:08:27.488Z,97008.44
2023-01-18T17:11:30.126Z,97018.06
2023-01-18T17:14:32.862Z,97016.09
2023-01-18T17:17:37.018Z,97026.66
2023-01-18T17:20:39.961Z,97031.94
2023-01-18T17:23:42.606Z,97039.44
2023-01-18T17:26:45.406Z,97044.13
2023-01-18T17:29:48.180Z,97054.63
2023-01-18T17:32:52.372Z,97057.81
2023-01-18T17:36:05.583Z,97054.63
2023-01-18T17:39:08.217Z,97057.81
2023-01-18T17:42:12.236Z,97069.06
2023-01-18T17:45:17.063Z,97065.00
2023-01-18T17:48:21.039Z,97073.47
2023-01-18T17:51:23.629Z,97077.94
2023-01-18T17:54:26.494Z,97091.50
2023-01-18T17:57:29.636Z,97099.31
2023-01-18T18:00:32.229Z,97108.66
2023-01-18T18:03:36.146Z,97103.97
2023-01-18T18:06:46.086Z,97115.22
2023-01-18T18:09:56.737Z,97121.91
2023-01-18T18:12:59.622Z,97126.59
2023-01-18T18:16:02.517Z,97120.09
2023-01-18T18:19:06.570Z,97131.97
2023-01-18T18:22:09.107Z,97139.16
2023-01-18T18:25:12.018Z,97126.38
2023-01-18T18:28:16.172Z,97135.56
2023-01-18T18:31:20.533Z,97143.13
2023-01-18T18:34:24.782Z,97150.00
2023-01-18T18:37:27.838Z,97149.50
2023-01-18T18:40:30.415Z,97161.88
2023-01-18T18:43:33.259Z,97172.63
2023-01-18T18:46:36.198Z,97173.66
2023-01-18T18:49:41.779Z,97185.22
2023-01-18T18:52:44.397Z,97185.31
2023-01-18T18:55:47.677Z,97199.97
2023-01-18T18:58:50.622Z,97196.00
2023-01-18T19:01:53.313Z,97195.69
2023-01-18T19:04:57.258Z,97209.03
2023-01-18T19:07:59.715Z,97206.56
2023-01-18T19:11:02.481Z,97218.00
2023-01-18T19:14:05.127Z,97211.72
2023-01-18T19:17:09.088Z,97223.97
2023-01-18T19:20:15.789Z,97229.34
2023-01-18T19:23:18.674Z,97228.19
2023-01-18T19:26:21.625Z,97228.78
2023-01-18T19:29:24.673Z,97237.03
2023-01-18T19:32:27.582Z,97237.56
2023-01-18T19:35:33.332Z,97241.69
2023-01-18T19:38:43.626Z,97244.34
2023-01-18T19:41:49.814Z,97254.22
2023-01-18T19:44:59.232Z,97255.16
2023-01-18T19:48:02.373Z,97252.41
2023-01-18T19:51:20.685Z,97266.13
2023-01-18T19:54:24.193Z,97268.53
2023-01-18T19:57:27.367Z,97269.19
2023-01-18T20:00:30.659Z,97268.47
2023-01-18T20:03:33.822Z,97271.47
2023-01-18T20:06:39.464Z,97275.94
2023-01-18T20:09:43.616Z,97280.09
2023-01-18T20:12:46.522Z,97286.03
2023-01-18T20:15:50.724Z,97289.22
2023-01-18T20:18:54.381Z,97290.09
2023-01-18T20:21:58.373Z,97301.81
2023-01-18T20:25:00.931Z,97301.81
2023-01-18T20:28:03.852Z,97307.19
2023-01-18T20:31:07.350Z,97309.56
2023-01-18T20:34:10.912Z,97317.84
2023-01-18T20:37:16.381Z,97318.63
2023-01-18T20:40:19.713Z,97317.22
2023-01-18T20:43:22.386Z,97321.44
2023-01-18T20:46:25.025Z,97320.34
2023-01-18T20:49:38.577Z,97321.13
2023-01-18T20:52:42.948Z,97332.53
2023-01-18T20:55:45.695Z,97336.09
2023-01-18T20:58:48.374Z,97343.84
2023-01-18T21:01:51.349Z,97346.53
2023-01-18T21:04:54.122Z,97354.97
2023-01-18T21:07:58.290Z,97362.34
2023-01-18T21:11:01.309Z,97358.41
2023-01-18T21:14:04.063Z,97360.06
2023-01-18T21:17:06.603Z,97370.81
2023-01-18T21:20:12.456Z,97369.50
2023-01-18T21:23:17.592Z,97376.56
2023-01-18T21:26:20.387Z,97375.56
2023-01-18T21:29:23.020Z,97375.91
2023-01-18T21:32:25.995Z,97379.59
2023-01-18T21:35:29.798Z,97388.25
2023-01-18T21:38:33.822Z,97386.97
2023-01-18T21:41:54.093Z,97386.50
2023-01-18T21:45:14.587Z,97380.78
2023-01-18T21:48:17.975Z,97385.19
2023-01-18T21:51:40.195Z,97390.59
2023-01-18T21:54:44.065Z,97395.16
2023-01-18T21:58:06.555Z,97393.25
2023-01-18T22:01:12.481Z,97405.16
2023-01-18T22:04:34.836Z,97410.47
2023-01-18T22:07:37.368Z,97413.91
2023-01-18T22:10:41.198Z,97417.41
2023-01-18T22:13:43.888Z,97419.84
2023-01-18T22:16:46.643Z,97425.00
2023-01-18T22:19:49.492Z,97434.72
2023-01-18T22:22:52.051Z,97439.56
2023-01-18T22:25:56.625Z,97448.38
2023-01-18T22:28:59.390Z,97448.09
2023-01-18T22:32:03.035Z,97456.50
2023-01-18T22:35:06.427Z,97455.47
2023-01-18T22:38:09.753Z,97459.19
2023-01-18T22:41:15.864Z,97468.69
2023-01-18T22:44:18.442Z,97470.56
2023-01-18T22:47:21.180Z,97471.13
2023-01-18T22:50:23.824Z,97470.16
2023-01-18T22:53:27.997Z,97466.06
2023-01-18T22:56:31.927Z,97474.50
2023-01-18T22:59:34.308Z,97474.25
2023-01-18T23:02:36.952Z,97471.91
2023-01-18T23:05:39.929Z,97483.44
2023-01-18T23:08:43.363Z,97482.31
2023-01-18T23:11:47.963Z,97483.19
2023-01-18T23:15:08.079Z,97498.22
2023-01-18T23:18:10.690Z,97492.56
2023-01-18T23:21:13.353Z,97497.69
2023-01-18T23:24:16.134Z,97502.31
2023-01-18T23:27:20.195Z,97507.69
2023-01-18T23:30:22.780Z,97500.22
2023-01-18T23:33:25.355Z,97494.00
2023-01-18T23:36:28.066Z,97499.63
2023-01-18T23:39:48.489Z,97513.81
2023-01-18T23:43:12.641Z,97516.28
2023-01-18T23:46:32.704Z,97514.13
2023-01-18T23:49:52.782Z,97512.00
2023-01-18T23:53:12.984Z,97512.75
2023-01-18T23:56:15.542Z,97522.72
2023-01-18T23:59:19.589Z,97521.13
